sensor_id;sensor_type;location;lat;lon;timestamp;pressure;altitude;pressure_sealevel;temperature;humidity
60974;BME280;46846;51.528;5.076;2023-04-10T00:00:05;101532.13;;;10.30;74.50
60974;BME280;46846;51.528;5.076;2023-04-10T00:02:32;101527.66;;;10.32;74.38
60974;BME280;46846;51.528;5.076;2023-04-10T00:05:00;101519.75;;;10.29;74.48
60974;BME280;46846;51.528;5.076;2023-04-10T00:07:25;101521.53;;;10.28;74.49
60974;BME280;46846;51.528;5.076;2023-04-10T00:09:51;101520.72;;;10.24;74.47
60974;BME280;46846;51.528;5.076;2023-04-10T00:12:17;101520.72;;;10.24;74.21
60974;BME280;46846;51.528;5.076;2023-04-10T00:14:42;101516.41;;;10.19;74.29
60974;BME280;46846;51.528;5.076;2023-04-10T00:17:08;101513.84;;;10.16;74.62
60974;BME280;46846;51.528;5.076;2023-04-10T00:19:33;101505.75;;;10.20;73.99
60974;BME280;46846;51.528;5.076;2023-04-10T00:21:59;101504.97;;;10.15;74.06
60974;BME280;46846;51.528;5.076;2023-04-10T00:24:24;101504.13;;;10.13;74.43
60974;BME280;46846;51.528;5.076;2023-04-10T00:26:50;101500.66;;;10.09;74.39
60974;BME280;46846;51.528;5.076;2023-04-10T00:29:15;101500.66;;;10.11;74.12
60974;BME280;46846;51.528;5.076;2023-04-10T00:31:40;101492.69;;;10.09;74.18
60974;BME280;46846;51.528;5.076;2023-04-10T00:34:06;101496.19;;;10.11;74.02
60974;BME280;46846;51.528;5.076;2023-04-10T00:36:31;101494.56;;;10.04;73.97
60974;BME280;46846;51.528;5.076;2023-04-10T00:38:57;101491.88;;;10.06;74.08
60974;BME280;46846;51.528;5.076;2023-04-10T00:41:23;101492.75;;;10.06;73.91
60974;BME280;46846;51.528;5.076;2023-04-10T00:43:49;101491.09;;;10.01;73.83
60974;BME280;46846;51.528;5.076;2023-04-10T00:46:14;101494.66;;;9.99;73.83
60974;BME280;46846;51.528;5.076;2023-04-10T00:48:40;101496.53;;;9.94;73.97
60974;BME280;46846;51.528;5.076;2023-04-10T00:51:05;101492.09;;;9.96;73.59
60974;BME280;46846;51.528;5.076;2023-04-10T00:53:31;101488.66;;;9.91;73.81
60974;BME280;46846;51.528;5.076;2023-04-10T00:55:57;101493.06;;;9.91;73.89
60974;BME280;46846;51.528;5.076;2023-04-10T00:58:23;101482.50;;;9.89;73.70
60974;BME280;46846;51.528;5.076;2023-04-10T01:00:50;101484.25;;;9.90;73.68
60974;BME280;46846;51.528;5.076;2023-04-10T01:03:16;101482.53;;;9.88;73.25
60974;BME280;46846;51.528;5.076;2023-04-10T01:11:14;101472.78;;;9.87;73.58
60974;BME280;46846;51.528;5.076;2023-04-10T01:16:26;101471.97;;;9.84;73.49
60974;BME280;46846;51.528;5.076;2023-04-10T01:19:01;101465.75;;;9.84;73.36
60974;BME280;46846;51.528;5.076;2023-04-10T01:21:30;101469.25;;;9.86;73.22
60974;BME280;46846;51.528;5.076;2023-04-10T01:26:52;101464.03;;;9.81;73.41
60974;BME280;46846;51.528;5.076;2023-04-10T01:29:19;101460.56;;;9.78;73.06
60974;BME280;46846;51.528;5.076;2023-04-10T01:31:57;101456.16;;;9.77;73.29
60974;BME280;46846;51.528;5.076;2023-04-10T01:34:38;101449.97;;;9.76;73.26
60974;BME280;46846;51.528;5.076;2023-04-10T01:37:07;101450.03;;;9.73;73.46
60974;BME280;46846;51.528;5.076;2023-04-10T01:39:38;101452.72;;;9.71;73.43
60974;BME280;46846;51.528;5.076;2023-04-10T01:42:06;101439.50;;;9.68;73.13
60974;BME280;46846;51.528;5.076;2023-04-10T01:44:35;101435.03;;;9.70;73.07
60974;BME280;46846;51.528;5.076;2023-04-10T01:47:03;101440.38;;;9.69;73.01
60974;BME280;46846;51.528;5.076;2023-04-10T01:49:32;101436.03;;;9.66;72.75
60974;BME280;46846;51.528;5.076;2023-04-10T01:51:59;101433.44;;;9.62;73.25
60974;BME280;46846;51.528;5.076;2023-04-10T01:54:26;101430.81;;;9.60;73.07
60974;BME280;46846;51.528;5.076;2023-04-10T01:56:52;101429.94;;;9.60;72.92
60974;BME280;46846;51.528;5.076;2023-04-10T01:59:17;101430.88;;;9.57;72.70
60974;BME280;46846;51.528;5.076;2023-04-10T02:01:43;101414.13;;;9.53;73.05
60974;BME280;46846;51.528;5.076;2023-04-10T02:04:08;101413.25;;;9.53;73.15
60974;BME280;46846;51.528;5.076;2023-04-10T02:09:11;101413.31;;;9.50;73.16
60974;BME280;46846;51.528;5.076;2023-04-10T02:12:25;101415.13;;;9.48;73.20
60974;BME280;46846;51.528;5.076;2023-04-10T02:14:26;101409.91;;;9.44;73.23
60974;BME280;46846;51.528;5.076;2023-04-10T02:16:55;101414.28;;;9.46;73.28
60974;BME280;46846;51.528;5.076;2023-04-10T02:19:22;101411.69;;;9.42;73.30
60974;BME280;46846;51.528;5.076;2023-04-10T02:21:50;101411.63;;;9.46;73.12
60974;BME280;46846;51.528;5.076;2023-04-10T02:24:16;101415.19;;;9.44;73.15
60974;BME280;46846;51.528;5.076;2023-04-10T02:26:52;101404.59;;;9.44;72.88
60974;BME280;46846;51.528;5.076;2023-04-10T02:29:18;101405.50;;;9.42;72.81
60974;BME280;46846;51.528;5.076;2023-04-10T02:31:43;101404.81;;;9.32;73.34
60974;BME280;46846;51.528;5.076;2023-04-10T02:34:09;101408.31;;;9.34;73.20
60974;BME280;46846;51.528;5.076;2023-04-10T02:36:38;101404.03;;;9.27;73.39
60974;BME280;46846;51.528;5.076;2023-04-10T02:39:04;101405.75;;;9.29;73.49
60974;BME280;46846;51.528;5.076;2023-04-10T02:41:30;101402.19;;;9.30;73.28
60974;BME280;46846;51.528;5.076;2023-04-10T02:43:55;101404.09;;;9.24;73.27
60974;BME280;46846;51.528;5.076;2023-04-10T02:46:20;101408.63;;;9.19;73.43
60974;BME280;46846;51.528;5.076;2023-04-10T02:48:46;101414.75;;;9.22;73.05
60974;BME280;46846;51.528;5.076;2023-04-10T02:51:11;101413.13;;;9.15;73.72
60974;BME280;46846;51.528;5.076;2023-04-10T02:53:37;101405.19;;;9.13;73.47
60974;BME280;46846;51.528;5.076;2023-04-10T02:56:02;101404.28;;;9.14;73.66
60974;BME280;46846;51.528;5.076;2023-04-10T02:58:30;101401.63;;;9.14;73.66
60974;BME280;46846;51.528;5.076;2023-04-10T03:00:56;101403.41;;;9.12;73.50
60974;BME280;46846;51.528;5.076;2023-04-10T03:03:21;101407.06;;;9.08;73.35
60974;BME280;46846;51.528;5.076;2023-04-10T03:05:47;101398.19;;;9.09;73.36
60974;BME280;46846;51.528;5.076;2023-04-10T03:08:14;101411.47;;;9.08;73.58
60974;BME280;46846;51.528;5.076;2023-04-10T03:10:41;101415.94;;;9.07;73.64
60974;BME280;46846;51.528;5.076;2023-04-10T03:13:07;101423.84;;;9.09;73.71
60974;BME280;46846;51.528;5.076;2023-04-10T03:15:32;101417.75;;;9.03;73.35
60974;BME280;46846;51.528;5.076;2023-04-10T03:17:58;101420.41;;;9.03;73.54
60974;BME280;46846;51.528;5.076;2023-04-10T03:20:23;101414.31;;;8.97;73.41
60974;BME280;46846;51.528;5.076;2023-04-10T03:22:48;101410.84;;;8.95;73.51
60974;BME280;46846;51.528;5.076;2023-04-10T03:25:15;101402.84;;;8.96;73.35
60974;BME280;46846;51.528;5.076;2023-04-10T03:27:40;101397.53;;;8.96;73.57
60974;BME280;46846;51.528;5.076;2023-04-10T03:30:06;101401.16;;;8.91;73.55
60974;BME280;46846;51.528;5.076;2023-04-10T03:32:31;101392.44;;;8.84;73.87
60974;BME280;46846;51.528;5.076;2023-04-10T03:34:57;101396.03;;;8.83;73.93
60974;BME280;46846;51.528;5.076;2023-04-10T03:37:23;101394.28;;;8.80;73.97
60974;BME280;46846;51.528;5.076;2023-04-10T03:39:49;101390.78;;;8.80;73.84
60974;BME280;46846;51.528;5.076;2023-04-10T03:42:15;101382.81;;;8.80;73.62
60974;BME280;46846;51.528;5.076;2023-04-10T03:44:40;101374.03;;;8.76;73.74
60974;BME280;46846;51.528;5.076;2023-04-10T03:47:05;101379.34;;;8.76;73.77
60974;BME280;46846;51.528;5.076;2023-04-10T03:49:31;101379.38;;;8.73;73.91
60974;BME280;46846;51.528;5.076;2023-04-10T03:51:56;101379.47;;;8.68;73.71
60974;BME280;46846;51.528;5.076;2023-04-10T03:54:21;101383.88;;;8.69;73.92
60974;BME280;46846;51.528;5.076;2023-04-10T03:56:47;101376.78;;;8.70;73.92
60974;BME280;46846;51.528;5.076;2023-04-10T03:59:12;101376.88;;;8.65;73.83
60974;BME280;46846;51.528;5.076;2023-04-10T04:01:37;101373.34;;;8.65;73.93
60974;BME280;46846;51.528;5.076;2023-04-10T04:04:03;101368.97;;;8.60;73.88
60974;BME280;46846;51.528;5.076;2023-04-10T04:06:28;101361.88;;;8.63;74.09
60974;BME280;46846;51.528;5.076;2023-04-10T04:08:55;101360.16;;;8.61;73.65
60974;BME280;46846;51.528;5.076;2023-04-10T04:11:20;101356.59;;;8.61;73.93
60974;BME280;46846;51.528;5.076;2023-04-10T04:13:46;101350.47;;;8.59;73.93
60974;BME280;46846;51.528;5.076;2023-04-10T04:16:11;101357.59;;;8.55;73.88
60974;BME280;46846;51.528;5.076;2023-04-10T04:18:37;101353.19;;;8.54;73.79
60974;BME280;46846;51.528;5.076;2023-04-10T04:21:02;101347.00;;;8.55;73.63
60974;BME280;46846;51.528;5.076;2023-04-10T04:23:27;101346.13;;;8.53;73.79
60974;BME280;46846;51.528;5.076;2023-04-10T04:25:53;101343.56;;;8.47;73.62
60974;BME280;46846;51.528;5.076;2023-04-10T04:28:20;101345.28;;;8.50;73.79
60974;BME280;46846;51.528;5.076;2023-04-10T04:30:46;101347.13;;;8.44;73.68
60974;BME280;46846;51.528;5.076;2023-04-10T04:33:11;101347.13;;;8.46;73.73
60974;BME280;46846;51.528;5.076;2023-04-10T04:35:36;101346.31;;;8.41;73.94
60974;BME280;46846;51.528;5.076;2023-04-10T04:38:02;101343.66;;;8.42;73.55
60974;BME280;46846;51.528;5.076;2023-04-10T04:40:27;101346.34;;;8.38;73.90
60974;BME280;46846;51.528;5.076;2023-04-10T04:42:52;101344.59;;;8.38;73.88
60974;BME280;46846;51.528;5.076;2023-04-10T04:45:17;101339.31;;;8.37;73.98
60974;BME280;46846;51.528;5.076;2023-04-10T04:47:43;101341.09;;;8.36;73.91
60974;BME280;46846;51.528;5.076;2023-04-10T04:50:08;101343.81;;;8.31;73.81
60974;BME280;46846;51.528;5.076;2023-04-10T04:52:34;101346.47;;;8.31;73.67
60974;BME280;46846;51.528;5.076;2023-04-10T04:54:59;101347.41;;;8.29;74.00
60974;BME280;46846;51.528;5.076;2023-04-10T04:57:24;101341.19;;;8.31;73.74
60974;BME280;46846;51.528;5.076;2023-04-10T04:59:50;101339.44;;;8.29;73.96
60974;BME280;46846;51.528;5.076;2023-04-10T05:02:15;101331.50;;;8.29;74.00
60974;BME280;46846;51.528;5.076;2023-04-10T05:04:43;101329.69;;;8.29;73.55
60974;BME280;46846;51.528;5.076;2023-04-10T05:07:08;101324.44;;;8.28;73.57
60974;BME280;46846;51.528;5.076;2023-04-10T05:09:33;101317.38;;;8.27;73.53
60974;BME280;46846;51.528;5.076;2023-04-10T05:11:59;101307.72;;;8.24;73.92
60974;BME280;46846;51.528;5.076;2023-04-10T05:14:24;101312.16;;;8.22;73.87
60974;BME280;46846;51.528;5.076;2023-04-10T05:16:50;101307.72;;;8.23;73.79
60974;BME280;46846;51.528;5.076;2023-04-10T05:19:15;101311.31;;;8.20;73.89
60974;BME280;46846;51.528;5.076;2023-04-10T05:21:41;101314.91;;;8.16;73.95
60974;BME280;46846;51.528;5.076;2023-04-10T05:24:06;101308.72;;;8.15;73.92
60974;BME280;46846;51.528;5.076;2023-04-10T05:26:31;101314.97;;;8.13;73.80
60974;BME280;46846;51.528;5.076;2023-04-10T05:28:56;101313.19;;;8.13;74.05
60974;BME280;46846;51.528;5.076;2023-04-10T05:31:22;101309.75;;;8.08;73.66
60974;BME280;46846;51.528;5.076;2023-04-10T05:33:47;101308.81;;;8.11;73.92
60974;BME280;46846;51.528;5.076;2023-04-10T05:36:12;101323.00;;;8.06;73.90
60974;BME280;46846;51.528;5.076;2023-04-10T05:38:38;101315.06;;;8.06;74.49
60974;BME280;46846;51.528;5.076;2023-04-10T05:41:03;101312.38;;;8.08;73.85
60974;BME280;46846;51.528;5.076;2023-04-10T05:43:29;101317.75;;;8.05;73.90
60974;BME280;46846;51.528;5.076;2023-04-10T05:45:54;101323.97;;;8.02;73.95
60974;BME280;46846;51.528;5.076;2023-04-10T05:48:20;101324.88;;;8.01;73.83
60974;BME280;46846;51.528;5.076;2023-04-10T05:50:46;101328.34;;;8.05;73.70
60974;BME280;46846;51.528;5.076;2023-04-10T05:53:12;101324.88;;;8.01;74.07
60974;BME280;46846;51.528;5.076;2023-04-10T05:55:38;101322.22;;;8.01;74.03
60974;BME280;46846;51.528;5.076;2023-04-10T05:58:03;101325.72;;;8.03;74.05
60974;BME280;46846;51.528;5.076;2023-04-10T06:00:28;101322.25;;;7.98;73.81
60974;BME280;46846;51.528;5.076;2023-04-10T06:02:54;101322.28;;;7.97;74.05
60974;BME280;46846;51.528;5.076;2023-04-10T06:05:19;101317.84;;;7.97;73.78
60974;BME280;46846;51.528;5.076;2023-04-10T06:07:45;101321.44;;;7.94;74.35
60974;BME280;46846;51.528;5.076;2023-04-10T06:10:11;101311.72;;;7.95;74.00
60974;BME280;46846;51.528;5.076;2023-04-10T06:12:36;101313.50;;;7.93;73.96
60974;BME280;46846;51.528;5.076;2023-04-10T06:15:01;101307.28;;;7.96;73.62
60974;BME280;46846;51.528;5.076;2023-04-10T06:17:27;101299.31;;;7.97;74.06
60974;BME280;46846;51.528;5.076;2023-04-10T06:19:52;101301.94;;;7.99;73.79
60974;BME280;46846;51.528;5.076;2023-04-10T06:22:18;101299.31;;;7.97;73.72
60974;BME280;46846;51.528;5.076;2023-04-10T06:24:43;101296.75;;;7.92;73.79
60974;BME280;46846;51.528;5.076;2023-04-10T06:27:08;101291.38;;;7.96;74.15
60974;BME280;46846;51.528;5.076;2023-04-10T06:29:34;101285.25;;;7.92;73.61
60974;BME280;46846;51.528;5.076;2023-04-10T06:31:59;101282.56;;;7.95;73.93
60974;BME280;46846;51.528;5.076;2023-04-10T06:34:24;101281.75;;;7.91;73.75
60974;BME280;46846;51.528;5.076;2023-04-10T06:36:50;101276.41;;;7.93;73.94
60974;BME280;46846;51.528;5.076;2023-04-10T06:39:16;101279.94;;;7.92;73.70
60974;BME280;46846;51.528;5.076;2023-04-10T06:41:41;101266.75;;;7.89;73.85
60974;BME280;46846;51.528;5.076;2023-04-10T06:44:07;101266.69;;;7.93;73.71
60974;BME280;46846;51.528;5.076;2023-04-10T06:46:32;101256.97;;;7.94;73.65
60974;BME280;46846;51.528;5.076;2023-04-10T06:48:57;101249.94;;;7.91;74.08
60974;BME280;46846;51.528;5.076;2023-04-10T06:51:23;101249.91;;;7.93;73.80
60974;BME280;46846;51.528;5.076;2023-04-10T06:53:48;101245.59;;;7.87;73.64
60974;BME280;46846;51.528;5.076;2023-04-10T06:56:14;101243.75;;;7.91;73.39
60974;BME280;46846;51.528;5.076;2023-04-10T06:58:39;101238.59;;;7.83;73.98
60974;BME280;46846;51.528;5.076;2023-04-10T07:01:05;101235.97;;;7.82;73.99
60974;BME280;46846;51.528;5.076;2023-04-10T07:03:31;101236.78;;;7.85;73.77
60974;BME280;46846;51.528;5.076;2023-04-10T07:05:56;101224.47;;;7.83;73.90
60974;BME280;46846;51.528;5.076;2023-04-10T07:08:22;101227.94;;;7.86;74.09
60974;BME280;46846;51.528;5.076;2023-04-10T07:10:47;101207.66;;;7.84;72.67
60974;BME280;46846;51.528;5.076;2023-04-10T07:13:13;101214.69;;;7.88;73.66
60974;BME280;46846;51.528;5.076;2023-04-10T07:15:38;101217.28;;;7.89;73.50
60974;BME280;46846;51.528;5.076;2023-04-10T07:18:04;101218.22;;;7.87;73.21
60974;BME280;46846;51.528;5.076;2023-04-10T07:20:29;101211.06;;;7.92;73.59
60974;BME280;46846;51.528;5.076;2023-04-10T07:22:54;101200.47;;;7.92;73.42
60974;BME280;46846;51.528;5.076;2023-04-10T07:25:20;101197.84;;;7.90;73.88
60974;BME280;46846;51.528;5.076;2023-04-10T07:27:46;101196.03;;;7.92;73.59
60974;BME280;46846;51.528;5.076;2023-04-10T07:30:11;101191.75;;;7.87;73.57
60974;BME280;46846;51.528;5.076;2023-04-10T07:32:36;101183.69;;;7.91;73.31
60974;BME280;46846;51.528;5.076;2023-04-10T07:35:04;101181.91;;;7.92;73.76
60974;BME280;46846;51.528;5.076;2023-04-10T07:37:30;101173.94;;;7.93;73.22
60974;BME280;46846;51.528;5.076;2023-04-10T07:39:56;101170.28;;;8.01;73.48
60974;BME280;46846;51.528;5.076;2023-04-10T07:42:21;101164.06;;;8.02;73.57
60974;BME280;46846;51.528;5.076;2023-04-10T07:44:47;101159.59;;;8.04;73.16
60974;BME280;46846;51.528;5.076;2023-04-10T07:47:12;101156.09;;;8.03;73.71
60974;BME280;46846;51.528;5.076;2023-04-10T07:49:37;101163.06;;;8.07;72.62
60974;BME280;46846;51.528;5.076;2023-04-10T07:52:03;101150.69;;;8.10;72.72
60974;BME280;46846;51.528;5.076;2023-04-10T07:54:31;101147.13;;;8.11;72.96
60974;BME280;46846;51.528;5.076;2023-04-10T07:56:58;101143.47;;;8.18;71.46
60974;BME280;46846;51.528;5.076;2023-04-10T07:59:23;101153.25;;;8.14;73.30
60974;BME280;46846;51.528;5.076;2023-04-10T08:01:48;101150.53;;;8.17;72.34
60974;BME280;46846;51.528;5.076;2023-04-10T08:04:14;101141.75;;;8.15;73.43
60974;BME280;46846;51.528;5.076;2023-04-10T08:06:39;101132.97;;;8.12;73.26
60974;BME280;46846;51.528;5.076;2023-04-10T08:09:05;101135.50;;;8.18;72.14
60974;BME280;46846;51.528;5.076;2023-04-10T08:11:31;101126.66;;;8.17;72.82
60974;BME280;46846;51.528;5.076;2023-04-10T08:13:59;101128.31;;;8.23;71.44
60974;BME280;46846;51.528;5.076;2023-04-10T08:16:32;101132.75;;;8.24;72.03
60974;BME280;46846;51.528;5.076;2023-04-10T08:18:58;101124.72;;;8.26;72.17
60974;BME280;46846;51.528;5.076;2023-04-10T08:21:25;101131.78;;;8.27;71.38
60974;BME280;46846;51.528;5.076;2023-04-10T08:23:56;101133.56;;;8.28;72.62
60974;BME280;46846;51.528;5.076;2023-04-10T08:26:22;101124.63;;;8.32;71.24
60974;BME280;46846;51.528;5.076;2023-04-10T08:28:49;101127.22;;;8.35;71.41
60974;BME280;46846;51.528;5.076;2023-04-10T08:31:16;101123.66;;;8.36;71.66
60974;BME280;46846;51.528;5.076;2023-04-10T08:33:43;101118.38;;;8.34;72.25
60974;BME280;46846;51.528;5.076;2023-04-10T08:36:08;101119.13;;;8.41;69.46
60974;BME280;46846;51.528;5.076;2023-04-10T08:38:34;101114.78;;;8.39;70.33
60974;BME280;46846;51.528;5.076;2023-04-10T08:40:59;101111.09;;;8.46;70.80
60974;BME280;46846;51.528;5.076;2023-04-10T08:43:25;101111.22;;;8.40;71.34
60974;BME280;46846;51.528;5.076;2023-04-10T08:45:51;101113.81;;;8.41;71.58
60974;BME280;46846;51.528;5.076;2023-04-10T08:48:18;101098.88;;;8.39;71.81
60974;BME280;46846;51.528;5.076;2023-04-10T08:50:45;101096.16;;;8.40;72.17
60974;BME280;46846;51.528;5.076;2023-04-10T08:53:12;101102.22;;;8.47;70.55
60974;BME280;46846;51.528;5.076;2023-04-10T08:55:39;101108.34;;;8.51;69.72
60974;BME280;46846;51.528;5.076;2023-04-10T08:58:05;101096.75;;;8.55;69.47
60974;BME280;46846;51.528;5.076;2023-04-10T09:00:35;101095.06;;;8.52;71.26
60974;BME280;46846;51.528;5.076;2023-04-10T09:03:03;101095.91;;;8.54;71.18
60974;BME280;46846;51.528;5.076;2023-04-10T09:05:34;101088.69;;;8.61;69.13
60974;BME280;46846;51.528;5.076;2023-04-10T09:07:59;101094.78;;;8.65;69.08
60974;BME280;46846;51.528;5.076;2023-04-10T09:10:25;101084.25;;;8.61;71.32
60974;BME280;46846;51.528;5.076;2023-04-10T09:12:50;101083.41;;;8.59;71.93
60974;BME280;46846;51.528;5.076;2023-04-10T09:15:16;101091.25;;;8.64;70.44
60974;BME280;46846;51.528;5.076;2023-04-10T09:20:23;101074.38;;;8.68;71.03
60974;BME280;46846;51.528;5.076;2023-04-10T09:22:48;101064.66;;;8.67;71.60
60974;BME280;46846;51.528;5.076;2023-04-10T09:25:34;101065.59;;;8.65;72.87
60974;BME280;46846;51.528;5.076;2023-04-10T09:28:05;101063.69;;;8.71;71.50
60974;BME280;46846;51.528;5.076;2023-04-10T09:30:39;101059.16;;;8.75;72.62
60974;BME280;46846;51.528;5.076;2023-04-10T09:33:22;101048.75;;;8.67;73.02
60974;BME280;46846;51.528;5.076;2023-04-10T09:35:48;101045.03;;;8.76;70.30
60974;BME280;46846;51.528;5.076;2023-04-10T09:38:19;101053.72;;;8.81;71.29
60974;BME280;46846;51.528;5.076;2023-04-10T09:40:46;101054.53;;;8.85;71.72
60974;BME280;46846;51.528;5.076;2023-04-10T09:43:24;101050.91;;;8.89;72.28
60974;BME280;46846;51.528;5.076;2023-04-10T09:45:54;101051.75;;;8.89;72.62
60974;BME280;46846;51.528;5.076;2023-04-10T09:48:22;101040.19;;;8.94;70.58
60974;BME280;46846;51.528;5.076;2023-04-10T09:50:48;101041.91;;;8.95;69.90
60974;BME280;46846;51.528;5.076;2023-04-10T09:53:14;101033.88;;;8.98;70.04
60974;BME280;46846;51.528;5.076;2023-04-10T09:55:41;101029.47;;;8.97;73.18
60974;BME280;46846;51.528;5.076;2023-04-10T09:58:10;101015.28;;;8.98;72.74
60974;BME280;46846;51.528;5.076;2023-04-10T10:00:41;101015.94;;;9.08;69.35
60974;BME280;46846;51.528;5.076;2023-04-10T10:03:09;101022.16;;;9.07;72.65
60974;BME280;46846;51.528;5.076;2023-04-10T10:05:37;101012.31;;;9.12;70.42
60974;BME280;46846;51.528;5.076;2023-04-10T10:08:03;101003.38;;;9.14;72.20
60974;BME280;46846;51.528;5.076;2023-04-10T10:10:29;101011.19;;;9.21;70.13
60974;BME280;46846;51.528;5.076;2023-04-10T10:12:56;101010.47;;;9.14;72.45
60974;BME280;46846;51.528;5.076;2023-04-10T10:18:43;100996.00;;;9.26;70.79
60974;BME280;46846;51.528;5.076;2023-04-10T10:21:12;100994.94;;;9.33;71.07
60974;BME280;46846;51.528;5.076;2023-04-10T10:23:39;100996.72;;;9.33;72.51
60974;BME280;46846;51.528;5.076;2023-04-10T10:26:05;100982.47;;;9.35;73.44
60974;BME280;46846;51.528;5.076;2023-04-10T10:28:31;100975.50;;;9.31;73.87
60974;BME280;46846;51.528;5.076;2023-04-10T10:30:58;100972.75;;;9.34;73.76
60974;BME280;46846;51.528;5.076;2023-04-10T10:33:25;100966.47;;;9.38;72.48
60974;BME280;46846;51.528;5.076;2023-04-10T10:35:51;100970.75;;;9.42;72.05
60974;BME280;46846;51.528;5.076;2023-04-10T10:38:17;100962.78;;;9.42;72.91
60974;BME280;46846;51.528;5.076;2023-04-10T10:41:08;100954.66;;;9.49;71.87
60974;BME280;46846;51.528;5.076;2023-04-10T10:43:46;100953.66;;;9.54;72.11
60974;BME280;46846;51.528;5.076;2023-04-10T10:46:37;100950.88;;;9.57;72.49
60974;BME280;46846;51.528;5.076;2023-04-10T10:49:05;100947.31;;;9.58;70.79
60974;BME280;46846;51.528;5.076;2023-04-10T10:54:31;100942.69;;;9.65;72.84
60974;BME280;46846;51.528;5.076;2023-04-10T10:56:57;100931.81;;;9.75;70.70
60974;BME280;46846;51.528;5.076;2023-04-10T11:00:23;100923.66;;;9.81;71.14
60974;BME280;46846;51.528;5.076;2023-04-10T11:02:18;100919.06;;;9.86;72.47
60974;BME280;46846;51.528;5.076;2023-04-10T11:04:45;100905.72;;;9.88;73.16
60974;BME280;46846;51.528;5.076;2023-04-10T11:07:11;100902.97;;;9.91;72.68
60974;BME280;46846;51.528;5.076;2023-04-10T11:09:53;100900.25;;;9.92;72.65
60974;BME280;46846;51.528;5.076;2023-04-10T11:12:22;100894.75;;;9.98;73.50
60974;BME280;46846;51.528;5.076;2023-04-10T11:15:06;100893.66;;;10.06;72.23
60974;BME280;46846;51.528;5.076;2023-04-10T11:17:49;100888.28;;;10.07;72.83
60974;BME280;46846;51.528;5.076;2023-04-10T11:20:18;100884.78;;;10.05;73.75
60974;BME280;46846;51.528;5.076;2023-04-10T11:23:08;100874.78;;;10.13;72.67
60974;BME280;46846;51.528;5.076;2023-04-10T11:25:51;100866.56;;;10.21;71.41
60974;BME280;46846;51.528;5.076;2023-04-10T11:28:37;100863.72;;;10.28;71.17
60974;BME280;46846;51.528;5.076;2023-04-10T11:31:21;100861.81;;;10.31;73.03
60974;BME280;46846;51.528;5.076;2023-04-10T11:33:52;100865.28;;;10.33;72.86
60974;BME280;46846;51.528;5.076;2023-04-10T11:36:25;100856.19;;;10.42;71.50
60974;BME280;46846;51.528;5.076;2023-04-10T11:38:59;100851.78;;;10.39;72.84
60974;BME280;46846;51.528;5.076;2023-04-10T11:41:26;100851.78;;;10.39;74.31
60974;BME280;46846;51.528;5.076;2023-04-10T11:43:52;100850.69;;;10.47;72.16
60974;BME280;46846;51.528;5.076;2023-04-10T11:46:18;100845.47;;;10.44;72.31
60974;BME280;46846;51.528;5.076;2023-04-10T11:48:44;100839.19;;;10.46;74.16
60974;BME280;46846;51.528;5.076;2023-04-10T11:51:11;100829.31;;;10.50;72.55
60974;BME280;46846;51.528;5.076;2023-04-10T11:53:37;100829.69;;;10.64;70.76
60974;BME280;46846;51.528;5.076;2023-04-10T11:56:03;100818.06;;;10.67;69.38
60974;BME280;46846;51.528;5.076;2023-04-10T11:58:31;100821.53;;;10.69;71.95
60974;BME280;46846;51.528;5.076;2023-04-10T12:00:57;100817.88;;;10.73;72.11
60974;BME280;46846;51.528;5.076;2023-04-10T12:03:49;100812.50;;;10.75;72.81
60974;BME280;46846;51.528;5.076;2023-04-10T12:06:15;100814.06;;;10.80;71.75
60974;BME280;46846;51.528;5.076;2023-04-10T12:08:41;100816.59;;;10.84;72.15
60974;BME280;46846;51.528;5.076;2023-04-10T12:11:09;100810.13;;;10.91;70.65
60974;BME280;46846;51.528;5.076;2023-04-10T12:13:35;100808.31;;;10.93;72.45
60974;BME280;46846;51.528;5.076;2023-04-10T12:16:04;100790.34;;;10.98;71.29
60974;BME280;46846;51.528;5.076;2023-04-10T12:18:30;100794.75;;;10.99;70.34
60974;BME280;46846;51.528;5.076;2023-04-10T12:20:56;100792.78;;;11.04;71.07
60974;BME280;46846;51.528;5.076;2023-04-10T12:23:24;100787.41;;;11.06;72.91
60974;BME280;46846;51.528;5.076;2023-04-10T12:25:50;100779.59;;;11.01;73.60
60974;BME280;46846;51.528;5.076;2023-04-10T12:28:19;100771.31;;;11.09;73.00
60974;BME280;46846;51.528;5.076;2023-04-10T12:30:50;100778.19;;;11.15;72.97
60974;BME280;46846;51.528;5.076;2023-04-10T12:33:20;100769.03;;;11.22;68.70
60974;BME280;46846;51.528;5.076;2023-04-10T12:35:45;100759.13;;;11.26;70.31
60974;BME280;46846;51.528;5.076;2023-04-10T12:38:11;100763.47;;;11.28;72.56
60974;BME280;46846;51.528;5.076;2023-04-10T12:40:36;100768.81;;;11.28;71.96
60974;BME280;46846;51.528;5.076;2023-04-10T12:43:02;100758.06;;;11.31;71.11
60974;BME280;46846;51.528;5.076;2023-04-10T12:45:41;100757.97;;;11.33;72.20
60974;BME280;46846;51.528;5.076;2023-04-10T12:48:07;100751.66;;;11.35;68.18
60974;BME280;46846;51.528;5.076;2023-04-10T12:50:32;100743.47;;;11.40;71.40
60974;BME280;46846;51.528;5.076;2023-04-10T12:53:02;100746.09;;;11.42;72.75
60974;BME280;46846;51.528;5.076;2023-04-10T12:55:27;100738.16;;;11.40;72.07
60974;BME280;46846;51.528;5.076;2023-04-10T12:57:53;100744.22;;;11.44;72.19
60974;BME280;46846;51.528;5.076;2023-04-10T13:00:19;100738.78;;;11.47;69.17
60974;BME280;46846;51.528;5.076;2023-04-10T13:02:46;100734.06;;;11.54;70.76
60974;BME280;46846;51.528;5.076;2023-04-10T13:05:12;100729.50;;;11.57;69.36
60974;BME280;46846;51.528;5.076;2023-04-10T13:07:38;100724.16;;;11.57;71.19
60974;BME280;46846;51.528;5.076;2023-04-10T13:10:03;100717.97;;;11.57;72.82
60974;BME280;46846;51.528;5.076;2023-04-10T13:12:30;100716.97;;;11.59;72.84
60974;BME280;46846;51.528;5.076;2023-04-10T13:14:55;100711.53;;;11.62;71.90
60974;BME280;46846;51.528;5.076;2023-04-10T13:17:24;100698.25;;;11.61;72.66
60974;BME280;46846;51.528;5.076;2023-04-10T13:19:49;100699.13;;;11.61;71.83